Wiconisco, Pennsylvania
Current Conditions -  °F | °C
As of 10:58 PM on Saturday 25 Oct 2014 (Local Time) from KMUI Reporting Station
Light Rain Light Rain  
Wind Chill: 58°   Ceiling: 4900
Heat Index: 58°   Visibility: 10mi
Dew Point: 51°   Wind: 3mph
Humidity: 77%   Direction: 260°W
Pressure: 29.64"   Gusts: NA
Location:  40.57°N, 76.69°W
Report Text: KMUI 260258Z AUTO 26003KT 10SM -RA BKN049 OVC060 15/11 A2964 RMK AO2 RAB0253DZB0242E0253 SLP039 P0000 60000 T01470108 57010 $
Loading
Personal Weather Stations






























Interactive Weather Map New forecast layout! Learn more

10-Day Weather Forecast

Advertisements
Track Severe Weather on mobile